sensor_id;sensor_type;location;lat;lon;timestamp;P1;durP1;ratioP1;P2;durP2;ratioP2
78053;SDS011;67726;45.636;11.752;2023-05-17T00:01:26;7.30;;;3.90;;
78053;SDS011;67726;45.636;11.752;2023-05-17T00:03:52;6.22;;;3.20;;
78053;SDS011;67726;45.636;11.752;2023-05-17T00:06:20;6.80;;;3.25;;
78053;SDS011;67726;45.636;11.752;2023-05-17T00:08:46;7.07;;;3.40;;
78053;SDS011;67726;45.636;11.752;2023-05-17T00:11:12;7.90;;;3.72;;
78053;SDS011;67726;45.636;11.752;2023-05-17T00:13:37;8.13;;;4.00;;
78053;SDS011;67726;45.636;11.752;2023-05-17T00:16:05;7.45;;;3.28;;
78053;SDS011;67726;45.636;11.752;2023-05-17T00:18:31;8.80;;;3.33;;
78053;SDS011;67726;45.636;11.752;2023-05-17T00:20:56;6.05;;;3.03;;
78053;SDS011;67726;45.636;11.752;2023-05-17T00:23:22;6.57;;;3.33;;
78053;SDS011;67726;45.636;11.752;2023-05-17T00:25:48;7.60;;;3.50;;
78053;SDS011;67726;45.636;11.752;2023-05-17T00:28:13;7.07;;;4.30;;
78053;SDS011;67726;45.636;11.752;2023-05-17T00:30:39;7.27;;;3.60;;
78053;SDS011;67726;45.636;11.752;2023-05-17T00:33:05;8.63;;;3.67;;
78053;SDS011;67726;45.636;11.752;2023-05-17T00:35:31;7.05;;;3.40;;
78053;SDS011;67726;45.636;11.752;2023-05-17T00:37:56;7.70;;;3.60;;
78053;SDS011;67726;45.636;11.752;2023-05-17T00:40:22;7.60;;;3.83;;
78053;SDS011;67726;45.636;11.752;2023-05-17T00:42:48;7.90;;;4.13;;
78053;SDS011;67726;45.636;11.752;2023-05-17T00:45:13;7.67;;;4.10;;
78053;SDS011;67726;45.636;11.752;2023-05-17T00:47:39;7.30;;;3.97;;
78053;SDS011;67726;45.636;11.752;2023-05-17T00:50:06;8.32;;;4.55;;
78053;SDS011;67726;45.636;11.752;2023-05-17T00:52:32;7.72;;;4.18;;
78053;SDS011;67726;45.636;11.752;2023-05-17T00:55:00;9.07;;;4.22;;
78053;SDS011;67726;45.636;11.752;2023-05-17T00:57:25;8.57;;;4.77;;
78053;SDS011;67726;45.636;11.752;2023-05-17T00:59:53;7.78;;;4.93;;
78053;SDS011;67726;45.636;11.752;2023-05-17T01:02:19;9.05;;;3.90;;
78053;SDS011;67726;45.636;11.752;2023-05-17T01:04:46;7.40;;;3.85;;
78053;SDS011;67726;45.636;11.752;2023-05-17T01:07:12;8.57;;;4.20;;
78053;SDS011;67726;45.636;11.752;2023-05-17T01:09:38;8.93;;;4.63;;
78053;SDS011;67726;45.636;11.752;2023-05-17T01:17:52;7.15;;;4.32;;
78053;SDS011;67726;45.636;11.752;2023-05-17T01:20:24;9.13;;;4.75;;
78053;SDS011;67726;45.636;11.752;2023-05-17T01:28:25;8.27;;;4.90;;
78053;SDS011;67726;45.636;11.752;2023-05-17T01:30:53;8.63;;;4.88;;
78053;SDS011;67726;45.636;11.752;2023-05-17T01:33:20;10.27;;;5.35;;
78053;SDS011;67726;45.636;11.752;2023-05-17T01:35:46;9.90;;;4.93;;
78053;SDS011;67726;45.636;11.752;2023-05-17T01:38:12;8.47;;;5.77;;
78053;SDS011;67726;45.636;11.752;2023-05-17T01:40:39;9.60;;;5.82;;
78053;SDS011;67726;45.636;11.752;2023-05-17T01:43:54;9.73;;;5.57;;
78053;SDS011;67726;45.636;11.752;2023-05-17T01:46:38;8.87;;;5.80;;
78053;SDS011;67726;45.636;11.752;2023-05-17T01:52:03;8.55;;;5.32;;
78053;SDS011;67726;45.636;11.752;2023-05-17T01:54:37;8.85;;;5.75;;
78053;SDS011;67726;45.636;11.752;2023-05-17T01:57:09;11.32;;;5.75;;
78053;SDS011;67726;45.636;11.752;2023-05-17T01:59:36;8.43;;;5.07;;
78053;SDS011;67726;45.636;11.752;2023-05-17T02:02:02;8.27;;;5.55;;
78053;SDS011;67726;45.636;11.752;2023-05-17T02:04:33;11.68;;;6.13;;
78053;SDS011;67726;45.636;11.752;2023-05-17T02:07:00;7.88;;;4.90;;
78053;SDS011;67726;45.636;11.752;2023-05-17T02:09:27;9.10;;;5.07;;
78053;SDS011;67726;45.636;11.752;2023-05-17T02:11:53;8.57;;;5.17;;
78053;SDS011;67726;45.636;11.752;2023-05-17T02:14:18;9.88;;;4.88;;
78053;SDS011;67726;45.636;11.752;2023-05-17T02:16:44;8.93;;;5.13;;
78053;SDS011;67726;45.636;11.752;2023-05-17T02:19:09;9.25;;;4.95;;
78053;SDS011;67726;45.636;11.752;2023-05-17T02:21:37;8.27;;;4.90;;
78053;SDS011;67726;45.636;11.752;2023-05-17T02:24:03;8.32;;;5.28;;
78053;SDS011;67726;45.636;11.752;2023-05-17T02:26:29;8.48;;;5.30;;
78053;SDS011;67726;45.636;11.752;2023-05-17T02:28:55;10.93;;;4.93;;
78053;SDS011;67726;45.636;11.752;2023-05-17T02:31:21;9.02;;;5.00;;
78053;SDS011;67726;45.636;11.752;2023-05-17T02:33:50;11.60;;;5.87;;
78053;SDS011;67726;45.636;11.752;2023-05-17T02:36:19;11.50;;;6.20;;
78053;SDS011;67726;45.636;11.752;2023-05-17T02:38:45;10.93;;;5.93;;
78053;SDS011;67726;45.636;11.752;2023-05-17T02:41:11;11.13;;;6.60;;
78053;SDS011;67726;45.636;11.752;2023-05-17T02:43:36;10.07;;;5.53;;
78053;SDS011;67726;45.636;11.752;2023-05-17T02:46:02;11.63;;;5.55;;
78053;SDS011;67726;45.636;11.752;2023-05-17T02:48:28;13.10;;;6.43;;
78053;SDS011;67726;45.636;11.752;2023-05-17T02:50:54;12.95;;;6.60;;
78053;SDS011;67726;45.636;11.752;2023-05-17T02:53:19;11.37;;;6.43;;
78053;SDS011;67726;45.636;11.752;2023-05-17T02:55:45;13.68;;;6.00;;
78053;SDS011;67726;45.636;11.752;2023-05-17T02:58:11;10.73;;;6.93;;
78053;SDS011;67726;45.636;11.752;2023-05-17T03:00:37;14.30;;;6.70;;
78053;SDS011;67726;45.636;11.752;2023-05-17T03:03:02;10.07;;;5.73;;
78053;SDS011;67726;45.636;11.752;2023-05-17T03:05:28;11.68;;;6.40;;
78053;SDS011;67726;45.636;11.752;2023-05-17T03:07:54;13.27;;;6.70;;
78053;SDS011;67726;45.636;11.752;2023-05-17T03:10:19;15.52;;;6.85;;
78053;SDS011;67726;45.636;11.752;2023-05-17T03:12:45;11.03;;;6.77;;
78053;SDS011;67726;45.636;11.752;2023-05-17T03:15:10;11.23;;;6.80;;
78053;SDS011;67726;45.636;11.752;2023-05-17T03:17:36;9.83;;;6.67;;
78053;SDS011;67726;45.636;11.752;2023-05-17T03:20:02;13.73;;;8.20;;
78053;SDS011;67726;45.636;11.752;2023-05-17T03:22:28;13.70;;;9.05;;
78053;SDS011;67726;45.636;11.752;2023-05-17T03:24:54;13.20;;;9.17;;
78053;SDS011;67726;45.636;11.752;2023-05-17T03:27:20;12.13;;;7.35;;
78053;SDS011;67726;45.636;11.752;2023-05-17T03:29:45;17.20;;;8.30;;
78053;SDS011;67726;45.636;11.752;2023-05-17T03:32:11;12.25;;;7.80;;
78053;SDS011;67726;45.636;11.752;2023-05-17T03:34:36;11.43;;;7.23;;
78053;SDS011;67726;45.636;11.752;2023-05-17T03:37:02;14.23;;;7.67;;
78053;SDS011;67726;45.636;11.752;2023-05-17T03:39:29;11.70;;;7.97;;
78053;SDS011;67726;45.636;11.752;2023-05-17T03:41:55;11.60;;;7.32;;
78053;SDS011;67726;45.636;11.752;2023-05-17T03:44:20;9.77;;;7.17;;
78053;SDS011;67726;45.636;11.752;2023-05-17T03:46:46;11.68;;;7.75;;
78053;SDS011;67726;45.636;11.752;2023-05-17T03:49:12;12.27;;;8.40;;
78053;SDS011;67726;45.636;11.752;2023-05-17T03:51:37;15.00;;;9.70;;
78053;SDS011;67726;45.636;11.752;2023-05-17T03:54:03;13.23;;;9.13;;
78053;SDS011;67726;45.636;11.752;2023-05-17T03:56:28;17.93;;;9.73;;
78053;SDS011;67726;45.636;11.752;2023-05-17T03:58:55;12.45;;;8.98;;
78053;SDS011;67726;45.636;11.752;2023-05-17T04:01:20;13.33;;;9.10;;
78053;SDS011;67726;45.636;11.752;2023-05-17T04:03:46;13.20;;;8.87;;
78053;SDS011;67726;45.636;11.752;2023-05-17T04:06:12;13.43;;;8.20;;
78053;SDS011;67726;45.636;11.752;2023-05-17T04:08:38;14.80;;;8.93;;
78053;SDS011;67726;45.636;11.752;2023-05-17T04:11:04;16.63;;;10.35;;
78053;SDS011;67726;45.636;11.752;2023-05-17T04:13:39;15.70;;;10.07;;
78053;SDS011;67726;45.636;11.752;2023-05-17T04:16:06;13.20;;;9.10;;
78053;SDS011;67726;45.636;11.752;2023-05-17T04:18:36;18.23;;;10.20;;
78053;SDS011;67726;45.636;11.752;2023-05-17T04:21:03;17.10;;;9.98;;
78053;SDS011;67726;45.636;11.752;2023-05-17T04:23:30;15.95;;;10.02;;
78053;SDS011;67726;45.636;11.752;2023-05-17T04:25:56;14.45;;;9.68;;
78053;SDS011;67726;45.636;11.752;2023-05-17T04:28:22;17.87;;;9.90;;
78053;SDS011;67726;45.636;11.752;2023-05-17T04:30:48;18.80;;;10.50;;
78053;SDS011;67726;45.636;11.752;2023-05-17T04:33:14;16.08;;;9.70;;
78053;SDS011;67726;45.636;11.752;2023-05-17T04:35:40;19.90;;;10.57;;
78053;SDS011;67726;45.636;11.752;2023-05-17T04:38:06;19.70;;;10.30;;
78053;SDS011;67726;45.636;11.752;2023-05-17T04:40:32;18.10;;;9.80;;
78053;SDS011;67726;45.636;11.752;2023-05-17T04:42:58;15.48;;;9.90;;
78053;SDS011;67726;45.636;11.752;2023-05-17T04:45:24;14.38;;;9.52;;
78053;SDS011;67726;45.636;11.752;2023-05-17T04:47:50;13.20;;;9.07;;
78053;SDS011;67726;45.636;11.752;2023-05-17T04:50:16;15.38;;;9.65;;
78053;SDS011;67726;45.636;11.752;2023-05-17T04:52:43;14.57;;;9.80;;
78053;SDS011;67726;45.636;11.752;2023-05-17T04:55:09;19.07;;;9.93;;
78053;SDS011;67726;45.636;11.752;2023-05-17T04:57:35;13.98;;;9.57;;
78053;SDS011;67726;45.636;11.752;2023-05-17T05:00:01;14.23;;;10.18;;
78053;SDS011;67726;45.636;11.752;2023-05-17T05:02:31;13.07;;;8.30;;
78053;SDS011;67726;45.636;11.752;2023-05-17T05:04:57;12.85;;;9.40;;
78053;SDS011;67726;45.636;11.752;2023-05-17T05:07:24;15.07;;;9.75;;
78053;SDS011;67726;45.636;11.752;2023-05-17T05:09:50;13.40;;;9.27;;
78053;SDS011;67726;45.636;11.752;2023-05-17T05:12:15;13.57;;;9.25;;
78053;SDS011;67726;45.636;11.752;2023-05-17T05:14:41;16.27;;;9.93;;
78053;SDS011;67726;45.636;11.752;2023-05-17T05:17:08;17.73;;;9.80;;
78053;SDS011;67726;45.636;11.752;2023-05-17T05:19:33;18.30;;;9.00;;
78053;SDS011;67726;45.636;11.752;2023-05-17T05:21:59;17.07;;;9.10;;
78053;SDS011;67726;45.636;11.752;2023-05-17T05:24:25;12.85;;;7.78;;
78053;SDS011;67726;45.636;11.752;2023-05-17T05:26:50;14.57;;;7.77;;
78053;SDS011;67726;45.636;11.752;2023-05-17T05:29:17;11.52;;;7.57;;
78053;SDS011;67726;45.636;11.752;2023-05-17T05:31:43;15.75;;;9.07;;
78053;SDS011;67726;45.636;11.752;2023-05-17T05:34:08;17.67;;;10.53;;
78053;SDS011;67726;45.636;11.752;2023-05-17T05:36:34;21.67;;;9.50;;
78053;SDS011;67726;45.636;11.752;2023-05-17T05:39:00;21.13;;;10.43;;
78053;SDS011;67726;45.636;11.752;2023-05-17T05:41:26;19.77;;;10.57;;
78053;SDS011;67726;45.636;11.752;2023-05-17T05:43:52;16.33;;;9.85;;
78053;SDS011;67726;45.636;11.752;2023-05-17T05:46:17;14.43;;;8.37;;
78053;SDS011;67726;45.636;11.752;2023-05-17T05:48:43;15.48;;;7.80;;
78053;SDS011;67726;45.636;11.752;2023-05-17T05:51:09;12.50;;;6.60;;
78053;SDS011;67726;45.636;11.752;2023-05-17T05:53:35;12.73;;;6.93;;
78053;SDS011;67726;45.636;11.752;2023-05-17T05:56:01;11.40;;;7.03;;
78053;SDS011;67726;45.636;11.752;2023-05-17T05:58:28;12.50;;;7.40;;
78053;SDS011;67726;45.636;11.752;2023-05-17T06:00:53;11.25;;;7.30;;
78053;SDS011;67726;45.636;11.752;2023-05-17T06:03:21;14.13;;;7.20;;
78053;SDS011;67726;45.636;11.752;2023-05-17T06:05:47;11.35;;;6.53;;
78053;SDS011;67726;45.636;11.752;2023-05-17T06:08:12;10.70;;;6.33;;
78053;SDS011;67726;45.636;11.752;2023-05-17T06:10:38;9.20;;;4.15;;
78053;SDS011;67726;45.636;11.752;2023-05-17T06:13:04;6.83;;;4.13;;
78053;SDS011;67726;45.636;11.752;2023-05-17T06:15:30;7.28;;;4.57;;
78053;SDS011;67726;45.636;11.752;2023-05-17T06:17:56;8.63;;;5.03;;
78053;SDS011;67726;45.636;11.752;2023-05-17T06:20:21;8.43;;;4.87;;
78053;SDS011;67726;45.636;11.752;2023-05-17T06:22:47;8.10;;;4.27;;
78053;SDS011;67726;45.636;11.752;2023-05-17T06:25:13;7.70;;;5.00;;
78053;SDS011;67726;45.636;11.752;2023-05-17T06:27:38;9.03;;;4.70;;
78053;SDS011;67726;45.636;11.752;2023-05-17T06:30:04;6.82;;;3.92;;
78053;SDS011;67726;45.636;11.752;2023-05-17T06:32:30;10.07;;;4.43;;
78053;SDS011;67726;45.636;11.752;2023-05-17T06:34:56;8.03;;;4.00;;
78053;SDS011;67726;45.636;11.752;2023-05-17T06:37:22;8.13;;;4.00;;
78053;SDS011;67726;45.636;11.752;2023-05-17T06:39:51;7.25;;;4.18;;
78053;SDS011;67726;45.636;11.752;2023-05-17T06:42:16;7.70;;;3.97;;
78053;SDS011;67726;45.636;11.752;2023-05-17T06:44:42;11.35;;;3.78;;
78053;SDS011;67726;45.636;11.752;2023-05-17T06:47:08;5.40;;;2.75;;
78053;SDS011;67726;45.636;11.752;2023-05-17T06:49:34;5.00;;;2.70;;
78053;SDS011;67726;45.636;11.752;2023-05-17T06:52:01;6.63;;;3.47;;
78053;SDS011;67726;45.636;11.752;2023-05-17T06:54:30;6.15;;;3.13;;
78053;SDS011;67726;45.636;11.752;2023-05-17T06:57:00;7.35;;;3.30;;
78053;SDS011;67726;45.636;11.752;2023-05-17T06:59:26;6.13;;;3.20;;
78053;SDS011;67726;45.636;11.752;2023-05-17T07:01:52;6.82;;;2.95;;
78053;SDS011;67726;45.636;11.752;2023-05-17T07:04:18;6.88;;;3.17;;
78053;SDS011;67726;45.636;11.752;2023-05-17T07:06:44;6.07;;;3.53;;
78053;SDS011;67726;45.636;11.752;2023-05-17T07:09:10;7.10;;;3.40;;
78053;SDS011;67726;45.636;11.752;2023-05-17T07:11:36;7.50;;;3.30;;
78053;SDS011;67726;45.636;11.752;2023-05-17T07:14:02;8.95;;;3.80;;
78053;SDS011;67726;45.636;11.752;2023-05-17T07:16:28;7.60;;;3.40;;
78053;SDS011;67726;45.636;11.752;2023-05-17T07:18:53;7.93;;;3.83;;
78053;SDS011;67726;45.636;11.752;2023-05-17T07:21:19;9.40;;;3.67;;
78053;SDS011;67726;45.636;11.752;2023-05-17T07:23:47;6.53;;;3.10;;
78053;SDS011;67726;45.636;11.752;2023-05-17T07:26:13;6.65;;;3.78;;
78053;SDS011;67726;45.636;11.752;2023-05-17T07:28:39;5.75;;;2.88;;
78053;SDS011;67726;45.636;11.752;2023-05-17T07:31:05;7.03;;;3.27;;
78053;SDS011;67726;45.636;11.752;2023-05-17T07:33:30;7.07;;;2.80;;
78053;SDS011;67726;45.636;11.752;2023-05-17T07:35:56;6.13;;;2.70;;
78053;SDS011;67726;45.636;11.752;2023-05-17T07:38:21;5.40;;;2.77;;
78053;SDS011;67726;45.636;11.752;2023-05-17T07:40:47;9.10;;;3.40;;
78053;SDS011;67726;45.636;11.752;2023-05-17T07:43:13;7.53;;;3.00;;
78053;SDS011;67726;45.636;11.752;2023-05-17T07:45:38;9.30;;;2.58;;
78053;SDS011;67726;45.636;11.752;2023-05-17T07:48:04;5.40;;;2.40;;
78053;SDS011;67726;45.636;11.752;2023-05-17T07:50:30;4.90;;;2.33;;
78053;SDS011;67726;45.636;11.752;2023-05-17T07:52:56;5.20;;;2.60;;
78053;SDS011;67726;45.636;11.752;2023-05-17T07:55:22;6.63;;;2.70;;
78053;SDS011;67726;45.636;11.752;2023-05-17T07:57:48;5.90;;;2.50;;
78053;SDS011;67726;45.636;11.752;2023-05-17T08:00:13;5.40;;;2.37;;
78053;SDS011;67726;45.636;11.752;2023-05-17T08:02:43;6.88;;;2.60;;
78053;SDS011;67726;45.636;11.752;2023-05-17T08:05:09;7.40;;;2.80;;
78053;SDS011;67726;45.636;11.752;2023-05-17T08:07:34;6.40;;;2.60;;
78053;SDS011;67726;45.636;11.752;2023-05-17T08:10:00;5.57;;;2.30;;
78053;SDS011;67726;45.636;11.752;2023-05-17T08:12:26;9.67;;;2.80;;
78053;SDS011;67726;45.636;11.752;2023-05-17T08:14:52;6.55;;;2.47;;
78053;SDS011;67726;45.636;11.752;2023-05-17T08:17:17;6.57;;;2.90;;
78053;SDS011;67726;45.636;11.752;2023-05-17T08:19:43;8.90;;;3.00;;
78053;SDS011;67726;45.636;11.752;2023-05-17T08:22:08;8.83;;;3.30;;
78053;SDS011;67726;45.636;11.752;2023-05-17T08:24:34;10.82;;;3.20;;
78053;SDS011;67726;45.636;11.752;2023-05-17T08:27:00;6.90;;;2.90;;
78053;SDS011;67726;45.636;11.752;2023-05-17T08:29:26;6.15;;;2.92;;
78053;SDS011;67726;45.636;11.752;2023-05-17T08:31:52;7.90;;;2.83;;
78053;SDS011;67726;45.636;11.752;2023-05-17T08:34:18;6.90;;;3.10;;
78053;SDS011;67726;45.636;11.752;2023-05-17T08:36:44;8.45;;;3.45;;
78053;SDS011;67726;45.636;11.752;2023-05-17T08:39:10;5.43;;;2.70;;
78053;SDS011;67726;45.636;11.752;2023-05-17T08:41:36;6.28;;;2.20;;
78053;SDS011;67726;45.636;11.752;2023-05-17T08:44:03;6.85;;;3.10;;
78053;SDS011;67726;45.636;11.752;2023-05-17T08:46:31;5.78;;;2.20;;
78053;SDS011;67726;45.636;11.752;2023-05-17T08:48:57;6.50;;;1.90;;
78053;SDS011;67726;45.636;11.752;2023-05-17T08:51:26;5.82;;;1.80;;
78053;SDS011;67726;45.636;11.752;2023-05-17T08:53:52;7.88;;;2.10;;
78053;SDS011;67726;45.636;11.752;2023-05-17T08:56:19;5.78;;;1.63;;
78053;SDS011;67726;45.636;11.752;2023-05-17T08:58:47;3.92;;;1.38;;
78053;SDS011;67726;45.636;11.752;2023-05-17T09:01:15;3.70;;;1.40;;
78053;SDS011;67726;45.636;11.752;2023-05-17T09:03:42;3.88;;;1.35;;
78053;SDS011;67726;45.636;11.752;2023-05-17T09:06:13;4.13;;;1.50;;
78053;SDS011;67726;45.636;11.752;2023-05-17T09:08:40;4.82;;;1.80;;
78053;SDS011;67726;45.636;11.752;2023-05-17T09:11:07;4.28;;;1.58;;
78053;SDS011;67726;45.636;11.752;2023-05-17T09:13:32;3.07;;;1.30;;
78053;SDS011;67726;45.636;11.752;2023-05-17T09:15:58;4.13;;;1.63;;
78053;SDS011;67726;45.636;11.752;2023-05-17T09:18:30;5.13;;;1.75;;
78053;SDS011;67726;45.636;11.752;2023-05-17T09:21:00;5.97;;;1.65;;
78053;SDS011;67726;45.636;11.752;2023-05-17T09:23:28;4.17;;;1.40;;
78053;SDS011;67726;45.636;11.752;2023-05-17T09:26:05;3.83;;;1.50;;
78053;SDS011;67726;45.636;11.752;2023-05-17T09:28:37;5.07;;;1.58;;
78053;SDS011;67726;45.636;11.752;2023-05-17T09:31:05;3.88;;;1.20;;
78053;SDS011;67726;45.636;11.752;2023-05-17T09:33:47;3.42;;;1.25;;
78053;SDS011;67726;45.636;11.752;2023-05-17T09:36:17;5.53;;;1.30;;
78053;SDS011;67726;45.636;11.752;2023-05-17T09:38:51;3.42;;;0.95;;
78053;SDS011;67726;45.636;11.752;2023-05-17T09:41:18;3.67;;;1.08;;
78053;SDS011;67726;45.636;11.752;2023-05-17T09:43:44;4.07;;;1.25;;
78053;SDS011;67726;45.636;11.752;2023-05-17T09:46:10;3.33;;;1.30;;
78053;SDS011;67726;45.636;11.752;2023-05-17T09:48:36;3.50;;;1.33;;
78053;SDS011;67726;45.636;11.752;2023-05-17T09:51:02;4.93;;;1.50;;
78053;SDS011;67726;45.636;11.752;2023-05-17T09:53:31;4.05;;;1.30;;
78053;SDS011;67726;45.636;11.752;2023-05-17T09:56:02;2.73;;;1.10;;
78053;SDS011;67726;45.636;11.752;2023-05-17T09:58:32;2.72;;;1.10;;
78053;SDS011;67726;45.636;11.752;2023-05-17T10:01:03;2.53;;;1.00;;
78053;SDS011;67726;45.636;11.752;2023-05-17T10:03:34;3.05;;;1.00;;
78053;SDS011;67726;45.636;11.752;2023-05-17T10:06:01;3.05;;;1.30;;
78053;SDS011;67726;45.636;11.752;2023-05-17T10:08:31;3.83;;;1.10;;
78053;SDS011;67726;45.636;11.752;2023-05-17T10:11:06;4.15;;;1.30;;
78053;SDS011;67726;45.636;11.752;2023-05-17T10:13:35;2.90;;;1.20;;
78053;SDS011;67726;45.636;11.752;2023-05-17T10:16:06;3.45;;;1.20;;
78053;SDS011;67726;45.636;11.752;2023-05-17T10:18:32;1.90;;;0.90;;
78053;SDS011;67726;45.636;11.752;2023-05-17T10:20:58;3.47;;;1.30;;
78053;SDS011;67726;45.636;11.752;2023-05-17T10:23:25;3.15;;;1.30;;
78053;SDS011;67726;45.636;11.752;2023-05-17T10:25:53;2.95;;;1.00;;
78053;SDS011;67726;45.636;11.752;2023-05-17T10:28:19;3.17;;;1.00;;
78053;SDS011;67726;45.636;11.752;2023-05-17T10:30:46;1.93;;;0.90;;
78053;SDS011;67726;45.636;11.752;2023-05-17T10:33:12;3.50;;;1.02;;
78053;SDS011;67726;45.636;11.752;2023-05-17T10:35:41;1.90;;;0.80;;
78053;SDS011;67726;45.636;11.752;2023-05-17T10:38:08;2.85;;;1.00;;
78053;SDS011;67726;45.636;11.752;2023-05-17T10:40:34;2.40;;;1.25;;
78053;SDS011;67726;45.636;11.752;2023-05-17T10:43:01;4.37;;;1.10;;
78053;SDS011;67726;45.636;11.752;2023-05-17T10:45:29;1.48;;;0.85;;
78053;SDS011;67726;45.636;11.752;2023-05-17T10:47:54;2.33;;;0.88;;
78053;SDS011;67726;45.636;11.752;2023-05-17T10:50:24;2.83;;;0.97;;
78053;SDS011;67726;45.636;11.752;2023-05-17T10:52:51;2.42;;;1.20;;
78053;SDS011;67726;45.636;11.752;2023-05-17T10:55:23;2.97;;;1.20;;
78053;SDS011;67726;45.636;11.752;2023-05-17T10:58:11;10.45;;;2.03;;
78053;SDS011;67726;45.636;11.752;2023-05-17T11:00:46;6.13;;;2.78;;
78053;SDS011;67726;45.636;11.752;2023-05-17T11:03:17;3.67;;;1.20;;
78053;SDS011;67726;45.636;11.752;2023-05-17T11:08:35;1.85;;;0.80;;
78053;SDS011;67726;45.636;11.752;2023-05-17T11:13:43;2.47;;;1.00;;
78053;SDS011;67726;45.636;11.752;2023-05-17T11:16:12;3.60;;;1.00;;
78053;SDS011;67726;45.636;11.752;2023-05-17T11:19:05;1.77;;;0.90;;
78053;SDS011;67726;45.636;11.752;2023-05-17T11:21:33;4.13;;;0.70;;
78053;SDS011;67726;45.636;11.752;2023-05-17T11:24:00;3.80;;;1.02;;
78053;SDS011;67726;45.636;11.752;2023-05-17T11:26:35;2.45;;;0.90;;
78053;SDS011;67726;45.636;11.752;2023-05-17T11:29:05;3.20;;;1.07;;
78053;SDS011;67726;45.636;11.752;2023-05-17T11:31:33;2.55;;;1.08;;
78053;SDS011;67726;45.636;11.752;2023-05-17T11:34:03;4.03;;;1.10;;
78053;SDS011;67726;45.636;11.752;2023-05-17T11:36:30;2.15;;;0.93;;
78053;SDS011;67726;45.636;11.752;2023-05-17T11:39:12;2.17;;;1.02;;
78053;SDS011;67726;45.636;11.752;2023-05-17T11:41:39;5.03;;;1.20;;
78053;SDS011;67726;45.636;11.752;2023-05-17T11:44:13;3.72;;;1.20;;
78053;SDS011;67726;45.636;11.752;2023-05-17T11:46:39;2.53;;;1.08;;
78053;SDS011;67726;45.636;11.752;2023-05-17T11:49:09;3.80;;;1.30;;
78053;SDS011;67726;45.636;11.752;2023-05-17T11:51:35;2.30;;;1.05;;
78053;SDS011;67726;45.636;11.752;2023-05-17T11:54:02;4.25;;;0.98;;
78053;SDS011;67726;45.636;11.752;2023-05-17T11:56:32;4.85;;;0.90;;
78053;SDS011;67726;45.636;11.752;2023-05-17T11:59:00;2.72;;;0.80;;
78053;SDS011;67726;45.636;11.752;2023-05-17T12:01:26;2.23;;;0.70;;
78053;SDS011;67726;45.636;11.752;2023-05-17T12:03:55;2.35;;;0.80;;
78053;SDS011;67726;45.636;11.752;2023-05-17T12:06:24;2.67;;;0.98;;
78053;SDS011;67726;45.636;11.752;2023-05-17T12:08:52;2.70;;;0.80;;
78053;SDS011;67726;45.636;11.752;2023-05-17T12:11:18;1.93;;;0.80;;
78053;SDS011;67726;45.636;11.752;2023-05-17T12:13:45;2.25;;;0.90;;
78053;SDS011;67726;45.636;11.752;2023-05-17T12:16:13;4.40;;;1.20;;
78053;SDS011;67726;45.636;11.752;2023-05-17T12:18:40;3.40;;;0.90;;
78053;SDS011;67726;45.636;11.752;2023-05-17T12:21:08;3.03;;;1.00;;
78053;SDS011;67726;45.636;11.752;2023-05-17T12:23:35;2.90;;;1.20;;
78053;SDS011;67726;45.636;11.752;2023-05-17T12:26:07;9.35;;;1.27;;
78053;SDS011;67726;45.636;11.752;2023-05-17T12:31:13;3.07;;;1.00;;
78053;SDS011;67726;45.636;11.752;2023-05-17T12:33:43;2.40;;;0.82;;
78053;SDS011;67726;45.636;11.752;2023-05-17T12:36:11;3.22;;;1.27;;
78053;SDS011;67726;45.636;11.752;2023-05-17T12:38:41;3.15;;;1.00;;
78053;SDS011;67726;45.636;11.752;2023-05-17T12:41:09;2.72;;;1.00;;
78053;SDS011;67726;45.636;11.752;2023-05-17T12:43:39;2.77;;;1.10;;
78053;SDS011;67726;45.636;11.752;2023-05-17T12:46:08;3.05;;;1.00;;
78053;SDS011;67726;45.636;11.752;2023-05-17T12:48:37;3.47;;;1.30;;
78053;SDS011;67726;45.636;11.752;2023-05-17T12:51:04;2.63;;;1.10;;
78053;SDS011;67726;45.636;11.752;2023-05-17T12:53:37;7.47;;;2.97;;
78053;SDS011;67726;45.636;11.752;2023-05-17T12:56:28;2.80;;;1.27;;
78053;SDS011;67726;45.636;11.752;2023-05-17T13:01:33;3.15;;;1.20;;
78053;SDS011;67726;45.636;11.752;2023-05-17T13:04:00;3.30;;;1.27;;
78053;SDS011;67726;45.636;11.752;2023-05-17T13:06:27;1.98;;;0.77;;
78053;SDS011;67726;45.636;11.752;2023-05-17T13:08:59;3.73;;;1.07;;
78053;SDS011;67726;45.636;11.752;2023-05-17T13:11:25;3.20;;;1.00;;
78053;SDS011;67726;45.636;11.752;2023-05-17T13:13:51;5.32;;;1.00;;
78053;SDS011;67726;45.636;11.752;2023-05-17T13:16:16;2.80;;;0.80;;
78053;SDS011;67726;45.636;11.752;2023-05-17T13:18:51;9.25;;;1.02;;
78053;SDS011;67726;45.636;11.752;2023-05-17T13:21:19;1.60;;;0.68;;
78053;SDS011;67726;45.636;11.752;2023-05-17T13:23:45;1.58;;;0.73;;
78053;SDS011;67726;45.636;11.752;2023-05-17T13:26:12;1.93;;;0.70;;
78053;SDS011;67726;45.636;11.752;2023-05-17T13:28:38;1.42;;;0.70;;
78053;SDS011;67726;45.636;11.752;2023-05-17T13:31:04;1.48;;;0.77;;
78053;SDS011;67726;45.636;11.752;2023-05-17T13:33:30;1.80;;;0.83;;
78053;SDS011;67726;45.636;11.752;2023-05-17T13:35:55;1.63;;;0.80;;
78053;SDS011;67726;45.636;11.752;2023-05-17T13:38:21;2.67;;;0.97;;
78053;SDS011;67726;45.636;11.752;2023-05-17T13:40:47;1.88;;;0.80;;
78053;SDS011;67726;45.636;11.752;2023-05-17T13:43:12;1.40;;;0.90;;
78053;SDS011;67726;45.636;11.752;2023-05-17T13:45:39;2.03;;;0.90;;
78053;SDS011;67726;45.636;11.752;2023-05-17T13:48:04;2.33;;;1.00;;
78053;SDS011;67726;45.636;11.752;2023-05-17T13:50:30;1.80;;;0.90;;
78053;SDS011;67726;45.636;11.752;2023-05-17T13:52:56;4.13;;;1.02;;
78053;SDS011;67726;45.636;11.752;2023-05-17T13:55:22;2.83;;;1.20;;
78053;SDS011;67726;45.636;11.752;2023-05-17T13:57:48;2.30;;;0.80;;
78053;SDS011;67726;45.636;11.752;2023-05-17T14:00:14;2.45;;;0.98;;
78053;SDS011;67726;45.636;11.752;2023-05-17T14:02:40;2.50;;;0.95;;
78053;SDS011;67726;45.636;11.752;2023-05-17T14:05:06;2.50;;;1.10;;
78053;SDS011;67726;45.636;11.752;2023-05-17T14:07:33;2.55;;;1.00;;
78053;SDS011;67726;45.636;11.752;2023-05-17T14:09:59;2.17;;;0.93;;
78053;SDS011;67726;45.636;11.752;2023-05-17T14:12:26;3.92;;;1.25;;
78053;SDS011;67726;45.636;11.752;2023-05-17T14:14:51;2.70;;;1.13;;
78053;SDS011;67726;45.636;11.752;2023-05-17T14:17:17;1.80;;;0.90;;
78053;SDS011;67726;45.636;11.752;2023-05-17T14:19:43;2.03;;;0.87;;
78053;SDS011;67726;45.636;11.752;2023-05-17T14:22:08;2.20;;;0.90;;
78053;SDS011;67726;45.636;11.752;2023-05-17T14:24:34;3.10;;;1.40;;
78053;SDS011;67726;45.636;11.752;2023-05-17T14:26:59;3.25;;;1.10;;
78053;SDS011;67726;45.636;11.752;2023-05-17T14:29:26;1.53;;;0.80;;
78053;SDS011;67726;45.636;11.752;2023-05-17T14:31:54;3.15;;;1.00;;
78053;SDS011;67726;45.636;11.752;2023-05-17T14:34:19;1.83;;;0.88;;
78053;SDS011;67726;45.636;11.752;2023-05-17T14:36:45;2.47;;;1.23;;
78053;SDS011;67726;45.636;11.752;2023-05-17T14:39:11;2.97;;;1.10;;
78053;SDS011;67726;45.636;11.752;2023-05-17T14:41:36;3.17;;;0.90;;
78053;SDS011;67726;45.636;11.752;2023-05-17T14:44:03;3.08;;;0.80;;
78053;SDS011;67726;45.636;11.752;2023-05-17T14:46:29;1.63;;;0.80;;
78053;SDS011;67726;45.636;11.752;2023-05-17T14:48:55;1.87;;;0.80;;
78053;SDS011;67726;45.636;11.752;2023-05-17T14:51:21;2.47;;;0.98;;
78053;SDS011;67726;45.636;11.752;2023-05-17T14:53:46;3.30;;;1.10;;
78053;SDS011;67726;45.636;11.752;2023-05-17T14:56:12;2.42;;;0.95;;